Time;durP1;ratioP1;P1;durP2;ratioP2;P2;SDS_P1;SDS_P2;PMS_P1;PMS_P2;Temp;Humidity;BMP_temperature;BMP_pressure;BME280_temperature;BME280_humidity;BME280_pressure;Samples;Min_cycle;Max_cycle;Signal;HPM_P1;HPM_P2
2023/09/10 00:02:02;;;;;;;14.15;10.98;;;25.70;7.70;;;;;;5097046;28;20160;-74
2023/09/10 00:04:27;;;;;;;19.63;12.25;;;25.70;3.30;;;;;;5096728;28;20176;-72
2023/09/10 00:06:53;;;;;;;13.98;11.35;;;25.60;10.50;;;;;;5096434;28;20679;-74
2023/09/10 00:09:19;;;;;;;13.20;10.48;;;25.50;13.40;;;;;;5096834;28;20168;-74
2023/09/10 00:11:45;;;;;;;16.20;12.23;;;25.40;8.00;;;;;;5096721;28;20615;-73
2023/09/10 00:14:11;;;;;;;15.82;13.63;;;25.30;16.00;;;;;;5096589;28;20183;-73
2023/09/10 00:16:36;;;;;;;16.33;13.15;;;25.20;27.30;;;;;;5096471;28;20172;-72
2023/09/10 00:19:02;;;;;;;17.85;12.65;;;25.10;48.20;;;;;;5096192;28;20224;-73
2023/09/10 00:21:28;;;;;;;16.00;12.77;;;25.00;52.60;;;;;;5096258;28;20177;-73
2023/09/10 00:23:53;;;;;;;17.27;12.48;;;24.90;59.30;;;;;;5096534;28;20175;-72
2023/09/10 00:26:19;;;;;;;15.88;13.77;;;24.80;66.70;;;;;;5096375;28;20631;-73
2023/09/10 00:28:44;;;;;;;21.63;14.35;;;24.70;76.50;;;;;;5096336;28;20661;-73
2023/09/10 00:31:10;;;;;;;16.10;14.20;;;24.70;81.60;;;;;;5096168;28;20682;-73
2023/09/10 00:33:35;;;;;;;18.65;14.27;;;24.70;86.90;;;;;;5096220;28;20259;-73
2023/09/10 00:36:01;;;;;;;16.00;13.93;;;24.70;84.20;;;;;;5095795;28;20217;-73
2023/09/10 00:38:27;;;;;;;19.77;14.65;;;24.70;82.70;;;;;;5096139;28;20207;-73
2023/09/10 00:40:52;;;;;;;16.70;14.02;;;24.60;86.90;;;;;;5096227;28;20247;-72
2023/09/10 00:43:18;;;;;;;17.83;12.90;;;24.60;84.60;;;;;;5095868;28;20168;-72
2023/09/10 00:45:43;;;;;;;15.10;12.00;;;24.60;75.60;;;;;;5096065;28;20164;-73
2023/09/10 00:48:09;;;;;;;13.93;10.82;;;24.50;69.80;;;;;;5096052;28;20179;-73
2023/09/10 00:50:35;;;;;;;13.38;11.05;;;24.50;61.00;;;;;;5095165;28;20164;-73
2023/09/10 00:53:02;;;;;;;12.07;9.27;;;24.40;58.00;;;;;;5095738;28;20187;-73
2023/09/10 00:55:29;;;;;;;11.63;9.05;;;24.40;52.30;;;;;;5095727;28;20779;-73
2023/09/10 00:57:56;;;;;;;13.35;10.95;;;24.50;44.30;;;;;;5095680;28;20741;-73
2023/09/10 01:00:22;;;;;;;14.75;11.05;;;24.50;47.60;;;;;;5094403;28;20216;-73
2023/09/10 01:02:49;;;;;;;10.18;9.15;;;24.60;48.20;;;;;;5094510;28;20268;-73
2023/09/10 01:05:17;;;;;;;16.90;9.50;;;24.60;35.60;;;;;;5095514;28;20164;-73
2023/09/10 01:07:44;;;;;;;14.27;9.85;;;24.60;28.30;;;;;;5095417;28;20160;-73
2023/09/10 01:10:10;;;;;;;14.43;9.15;;;24.50;25.50;;;;;;5095543;28;20164;-73
2023/09/10 01:13:27;;;;;;;11.32;8.88;;;24.50;25.60;;;;;;5094406;28;20597;-73
2023/09/10 01:16:18;;;;;;;14.25;9.27;;;24.50;24.90;;;;;;5050437;28;20182;-72
2023/09/10 01:18:49;;;;;;;12.75;9.48;;;24.50;29.20;;;;;;5094940;28;20706;-73
2023/09/10 01:21:31;;;;;;;12.00;9.13;;;24.40;34.90;;;;;;5095186;28;20176;-73
2023/09/10 01:24:06;;;;;;;16.05;9.55;;;24.30;37.80;;;;;;5095463;28;20164;-73
2023/09/10 01:26:31;;;;;;;13.73;9.00;;;24.40;35.10;;;;;;5095137;28;20171;-73
2023/09/10 01:28:57;;;;;;;13.25;8.70;;;24.40;34.40;;;;;;5095105;28;20174;-74
2023/09/10 01:31:22;;;;;;;15.05;9.18;;;24.30;37.00;;;;;;5094859;28;20666;-74
2023/09/10 01:33:55;;;;;;;9.23;8.32;;;24.30;39.00;;;;;;5095122;28;20168;-72
2023/09/10 01:36:31;;;;;;;10.52;8.93;;;24.30;35.10;;;;;;5095015;28;20168;-73
2023/09/10 01:39:18;;;;;;;12.63;9.15;;;24.30;35.90;;;;;;5093688;28;20203;-73
2023/09/10 01:41:46;;;;;;;14.75;9.27;;;24.30;34.40;;;;;;5095092;28;20203;-74
2023/09/10 01:44:14;;;;;;;13.25;9.10;;;24.20;35.50;;;;;;5093635;28;20636;-72
2023/09/10 01:46:41;;;;;;;11.00;8.90;;;24.10;39.70;;;;;;5094943;28;20254;-72
2023/09/10 01:49:08;;;;;;;10.80;9.15;;;24.10;46.00;;;;;;5094635;28;20164;-73
2023/09/10 01:51:33;;;;;;;13.68;9.15;;;24.10;47.40;;;;;;5094811;28;20171;-73
2023/09/10 01:53:59;;;;;;;10.75;9.32;;;24.10;47.20;;;;;;5094490;28;20191;-73
2023/09/10 01:56:25;;;;;;;15.13;10.43;;;24.10;45.40;;;;;;5094693;28;20176;-73
2023/09/10 01:58:50;;;;;;;13.07;10.20;;;24.00;47.50;;;;;;5094591;28;20245;-73
2023/09/10 02:01:17;;;;;;;11.27;9.35;;;24.00;48.10;;;;;;5094651;28;20167;-72
2023/09/10 02:03:42;;;;;;;12.20;9.30;;;24.00;49.70;;;;;;5093337;28;20164;-73
2023/09/10 02:06:08;;;;;;;15.07;9.90;;;23.90;56.30;;;;;;5094426;28;20623;-73
2023/09/10 02:08:33;;;;;;;11.32;10.07;;;23.90;58.70;;;;;;5094384;28;20168;-73
2023/09/10 02:11:04;;;;;;;12.80;9.38;;;23.90;60.00;;;;;;5094423;28;20175;-72
2023/09/10 02:13:30;;;;;;;12.63;9.60;;;23.90;58.40;;;;;;5094545;28;20172;-72
2023/09/10 02:15:55;;;;;;;15.18;9.63;;;24.00;56.10;;;;;;5094226;28;20212;-72
2023/09/10 02:18:22;;;;;;;11.77;9.23;;;24.00;52.00;;;;;;5092670;28;20226;-72
2023/09/10 02:20:48;;;;;;;12.55;9.35;;;24.00;49.00;;;;;;5094149;28;20172;-72
2023/09/10 02:23:13;;;;;;;12.80;9.13;;;24.00;48.10;;;;;;5093969;28;20171;-73
2023/09/10 02:25:39;;;;;;;10.50;8.75;;;24.00;45.30;;;;;;5094121;28;20168;-73
2023/09/10 02:28:05;;;;;;;9.77;8.60;;;24.10;47.20;;;;;;5094170;28;20197;-73
2023/09/10 02:30:30;;;;;;;10.38;9.32;;;24.10;46.60;;;;;;5094078;28;20683;-73
2023/09/10 02:32:56;;;;;;;11.55;8.93;;;24.10;43.70;;;;;;5093685;28;20171;-73
2023/09/10 02:35:22;;;;;;;10.75;7.80;;;24.10;38.30;;;;;;5094119;28;20684;-73
2023/09/10 02:37:48;;;;;;;10.52;8.30;;;24.20;30.60;;;;;;5093871;28;20168;-73
2023/09/10 02:40:13;;;;;;;11.27;8.02;;;24.20;31.10;;;;;;5093899;28;20667;-73
2023/09/10 02:42:39;;;;;;;9.40;8.23;;;24.20;29.90;;;;;;5093872;28;20164;-73
2023/09/10 02:45:06;;;;;;;10.23;6.95;;;24.30;26.30;;;;;;5093804;28;20171;-73
2023/09/10 02:47:31;;;;;;;15.60;8.15;;;24.30;23.50;;;;;;5093290;28;20700;-73
2023/09/10 02:49:57;;;;;;;11.52;7.78;;;24.30;23.70;;;;;;5093961;28;20175;-73
2023/09/10 02:52:26;;;;;;;10.80;8.10;;;24.30;22.30;;;;;;5093627;28;20168;-73
2023/09/10 02:54:52;;;;;;;13.73;8.68;;;24.30;23.90;;;;;;5093770;28;20171;-73
2023/09/10 02:57:17;;;;;;;12.98;8.35;;;24.30;25.40;;;;;;5093493;28;20168;-72
2023/09/10 02:59:43;;;;;;;11.43;8.32;;;24.20;25.60;;;;;;5093548;28;20294;-72
2023/09/10 03:02:09;;;;;;;13.70;9.55;;;24.20;27.30;;;;;;5093288;28;20189;-73
2023/09/10 03:04:35;;;;;;;13.32;8.50;;;24.20;30.30;;;;;;5093602;28;20172;-72
2023/09/10 03:07:01;;;;;;;9.50;8.50;;;24.00;39.20;;;;;;5093372;28;20555;-72
2023/09/10 03:09:27;;;;;;;10.13;8.68;;;24.00;39.80;;;;;;5093669;28;20164;-73
2023/09/10 03:11:53;;;;;;;10.30;8.60;;;23.90;42.00;;;;;;5093333;28;20163;-72
2023/09/10 03:14:18;;;;;;;12.80;9.05;;;24.00;40.50;;;;;;5091871;28;20650;-72
2023/09/10 03:16:44;;;;;;;12.20;9.05;;;23.90;42.20;;;;;;5092972;28;20170;-72
2023/09/10 03:19:10;;;;;;;12.45;9.10;;;23.90;48.70;;;;;;5093076;28;20227;-72
2023/09/10 03:21:37;;;;;;;16.30;9.88;;;23.90;46.20;;;;;;5093327;28;20190;-72
2023/09/10 03:24:03;;;;;;;13.45;8.82;;;23.90;47.20;;;;;;5092007;28;20176;-73
2023/09/10 03:26:28;;;;;;;10.20;8.93;;;23.90;49.80;;;;;;5093145;28;20168;-72
2023/09/10 03:28:54;;;;;;;13.40;9.38;;;23.90;47.20;;;;;;5093232;28;20616;-72
2023/09/10 03:31:20;;;;;;;15.68;9.35;;;23.90;46.20;;;;;;5091446;28;20560;-72
2023/09/10 03:33:45;;;;;;;12.80;8.40;;;23.90;46.40;;;;;;5093337;28;20168;-72
2023/09/10 03:36:11;;;;;;;11.13;7.97;;;23.80;47.70;;;;;;5092865;28;20168;-73
2023/09/10 03:38:36;;;;;;;10.93;9.38;;;23.90;49.50;;;;;;5093161;28;20541;-72
2023/09/10 03:41:02;;;;;;;12.00;9.23;;;23.90;42.90;;;;;;5093037;28;20179;-72
2023/09/10 03:43:28;;;;;;;15.60;9.02;;;23.90;47.00;;;;;;5091637;28;20172;-72
2023/09/10 03:45:54;;;;;;;12.35;9.15;;;23.90;46.80;;;;;;5092712;28;20171;-72
2023/09/10 03:48:19;;;;;;;13.05;9.20;;;23.90;47.80;;;;;;5093103;28;20172;-73
2023/09/10 03:50:45;;;;;;;12.38;9.38;;;23.80;51.20;;;;;;5091859;28;20667;-71
2023/09/10 03:53:10;;;;;;;13.82;8.65;;;23.80;52.10;;;;;;5093127;28;20160;-72
2023/09/10 03:55:36;;;;;;;9.77;8.60;;;23.80;50.80;;;;;;5092881;28;20666;-74
2023/09/10 03:58:02;;;;;;;13.07;9.23;;;23.70;51.70;;;;;;5092698;28;20196;-74
2023/09/10 04:00:28;;;;;;;11.95;8.77;;;23.60;60.40;;;;;;5092718;28;20207;-72
2023/09/10 04:02:54;;;;;;;11.68;9.27;;;23.70;56.80;;;;;;5092977;28;20680;-72
2023/09/10 04:05:19;;;;;;;10.48;8.48;;;23.70;58.50;;;;;;5092594;28;20254;-72
2023/09/10 04:07:45;;;;;;;10.95;8.00;;;23.60;55.50;;;;;;5092784;28;20176;-72
2023/09/10 04:10:11;;;;;;;10.75;8.20;;;23.70;52.60;;;;;;5092913;28;20523;-73
2023/09/10 04:12:37;;;;;;;15.52;8.60;;;23.60;53.10;;;;;;5092363;28;20626;-73
2023/09/10 04:15:03;;;;;;;11.68;8.55;;;23.60;55.00;;;;;;5092565;28;20529;-73
2023/09/10 04:17:29;;;;;;;11.65;8.38;;;23.60;54.40;;;;;;5092866;28;20180;-72
2023/09/10 04:19:58;;;;;;;10.45;8.48;;;23.60;51.50;;;;;;5092214;28;20222;-72
2023/09/10 04:22:24;;;;;;;12.60;8.23;;;23.60;50.20;;;;;;5092571;28;20171;-73
2023/09/10 04:24:50;;;;;;;11.15;9.55;;;23.60;51.80;;;;;;5092335;28;20168;-72
2023/09/10 04:27:16;;;;;;;11.55;8.75;;;23.50;60.80;;;;;;5094907;28;20198;-72
2023/09/10 04:29:41;;;;;;;12.43;9.45;;;23.50;70.70;;;;;;5096036;28;20171;-72
2023/09/10 04:32:07;;;;;;;15.63;9.60;;;23.40;77.80;;;;;;5096267;28;20514;-72
2023/09/10 04:34:32;;;;;;;13.57;9.95;;;23.40;81.70;;;;;;5096031;28;20164;-72
2023/09/10 04:36:58;;;;;;;13.15;10.35;;;23.20;89.90;;;;;;5095925;28;20176;-72
2023/09/10 04:39:24;;;;;;;13.50;9.88;;;23.10;95.50;;;;;;5096097;28;20246;-71
2023/09/10 04:41:49;;;;;;;12.98;10.35;;;23.00;98.20;;;;;;5095841;28;20166;-73
2023/09/10 04:44:16;;;;;;;13.27;10.40;;;22.90;99.90;;;;;;5095533;28;20225;-72
2023/09/10 04:46:41;;;;;;;14.40;10.40;;;22.90;99.90;;;;;;5095864;28;20164;-71
2023/09/10 04:49:07;;;;;;;21.45;14.93;;;22.80;99.90;;;;;;5095626;28;20255;-72
2023/09/10 04:51:33;;;;;;;20.70;15.40;;;22.70;99.90;;;;;;5096086;28;20171;-72
2023/09/10 04:53:58;;;;;;;24.17;16.75;;;22.60;99.90;;;;;;5095778;28;20211;-72
2023/09/10 04:56:24;;;;;;;26.83;20.00;;;22.50;99.90;;;;;;5094127;28;20168;-72
2023/09/10 04:58:49;;;;;;;13.02;10.80;;;22.40;99.90;;;;;;5095188;28;20624;-72
2023/09/10 05:01:15;;;;;;;15.73;12.05;;;22.40;99.90;;;;;;5095537;28;20687;-72
2023/09/10 05:03:41;;;;;;;23.38;17.17;;;22.30;99.90;;;;;;5095765;28;20168;-72
2023/09/10 05:06:07;;;;;;;13.20;10.90;;;22.30;99.90;;;;;;5095419;28;20164;-72
2023/09/10 05:08:34;;;;;;;13.82;10.85;;;22.30;99.90;;;;;;5095838;28;20246;-72
2023/09/10 05:11:00;;;;;;;15.20;11.10;;;22.30;99.90;;;;;;5095388;28;20254;-73
2023/09/10 05:13:26;;;;;;;14.13;11.75;;;22.30;99.90;;;;;;5093265;28;20562;-72
2023/09/10 05:15:54;;;;;;;15.95;11.98;;;22.30;99.90;;;;;;5095363;28;20164;-72
2023/09/10 05:18:20;;;;;;;17.30;11.32;;;22.40;99.90;;;;;;5094877;28;20200;-72
2023/09/10 05:20:48;;;;;;;14.80;11.75;;;22.30;99.90;;;;;;5095021;28;20187;-72
2023/09/10 05:23:13;;;;;;;16.15;11.50;;;22.40;99.90;;;;;;5093823;28;20527;-72
2023/09/10 05:25:39;;;;;;;18.15;12.20;;;22.50;99.90;;;;;;5094949;28;20171;-72
2023/09/10 05:28:05;;;;;;;18.38;12.77;;;22.50;99.90;;;;;;5094529;28;20176;-72
2023/09/10 05:30:31;;;;;;;18.30;11.88;;;22.60;99.90;;;;;;5094946;28;20188;-72
2023/09/10 05:32:57;;;;;;;13.38;11.98;;;22.70;99.90;;;;;;5095186;28;20266;-72
2023/09/10 05:35:23;;;;;;;16.15;11.90;;;22.80;99.90;;;;;;5094943;28;20217;-72
2023/09/10 05:37:48;;;;;;;15.88;12.00;;;22.80;99.90;;;;;;5094964;28;20175;-73
2023/09/10 05:40:14;;;;;;;13.85;11.23;;;22.90;99.90;;;;;;5094422;28;20573;-73
2023/09/10 05:42:39;;;;;;;16.30;11.75;;;23.00;99.90;;;;;;5093013;28;20164;-73
2023/09/10 05:45:06;;;;;;;17.10;11.68;;;23.40;99.90;;;;;;5094547;28;20176;-73
2023/09/10 05:47:32;;;;;;;16.23;10.40;;;23.90;99.90;;;;;;5094237;28;20164;-73
2023/09/10 05:49:59;;;;;;;16.42;10.40;;;24.50;99.90;;;;;;5092956;28;20225;-73
2023/09/10 05:52:25;;;;;;;12.73;10.70;;;25.30;88.10;;;;;;5094590;28;20615;-73
2023/09/10 05:54:50;;;;;;;14.95;10.65;;;25.80;44.90;;;;;;5093897;28;20193;-73
2023/09/10 05:57:16;;;;;;;13.05;10.18;;;26.60;16.00;;;;;;5094278;28;20489;-73
2023/09/10 05:59:41;;;;;;;14.05;9.48;;;27.10;1.00;;;;;;5094701;28;20200;-74
2023/09/10 06:02:07;;;;;;;11.35;9.93;;;27.50;1.00;;;;;;5094587;28;20179;-74
2023/09/10 06:04:33;;;;;;;11.60;9.75;;;27.70;1.00;;;;;;5094253;28;20623;-74
2023/09/10 06:07:00;;;;;;;11.45;9.63;;;28.20;1.00;;;;;;5094317;28;20183;-74
2023/09/10 06:09:26;;;;;;;13.10;9.80;;;28.50;1.00;;;;;;5093937;28;20230;-75
2023/09/10 06:11:52;;;;;;;12.40;9.70;;;28.60;1.00;;;;;;5094047;28;20155;-76
2023/09/10 06:14:17;;;;;;;12.73;9.48;;;28.90;1.00;;;;;;5094235;28;20233;-76
2023/09/10 06:16:43;;;;;;;12.60;9.30;;;29.60;1.00;;;;;;5094043;28;20183;-76
2023/09/10 06:19:08;;;;;;;14.15;9.82;;;30.40;1.00;;;;;;5093777;28;20695;-75
2023/09/10 06:21:35;;;;;;;13.85;9.63;;;30.70;99.90;;;;;;5093936;28;20179;-77
2023/09/10 06:24:00;;;;;;;13.45;9.70;;;31.60;1.00;;;;;;5093414;28;20164;-76
2023/09/10 06:26:26;;;;;;;14.35;9.68;;;31.40;1.00;;;;;;5094015;28;20171;-76
2023/09/10 06:28:52;;;;;;;15.20;9.55;;;31.10;1.00;;;;;;5094191;28;20253;-75
2023/09/10 06:31:17;;;;;;;15.05;9.15;;;31.10;47.00;;;;;;5093628;28;20587;-77
2023/09/10 06:33:43;;;;;;;11.80;9.40;;;31.20;1.00;;;;;;5093974;28;20167;-77
2023/09/10 06:36:09;;;;;;;12.75;9.38;;;32.00;99.90;;;;;;5093688;28;20164;-77
2023/09/10 06:38:34;;;;;;;12.75;9.57;;;32.10;99.90;;;;;;5091964;28;20168;-78
2023/09/10 06:41:00;;;;;;;12.95;10.10;;;32.80;1.00;;;;;;5093516;28;20183;-79
2023/09/10 06:43:26;;;;;;;13.15;9.38;;;33.80;1.00;;;;;;5093802;28;20166;-79
2023/09/10 06:45:51;;;;;;;10.23;9.10;;;34.70;1.00;;;;;;5093855;28;20194;-79
2023/09/10 06:48:18;;;;;;;11.25;9.45;;;35.60;90.70;;;;;;5093353;28;20174;-80
2023/09/10 06:50:44;;;;;;;10.52;9.45;;;36.50;99.90;;;;;;5093326;28;20170;-81
2023/09/10 06:53:09;;;;;;;12.25;8.93;;;37.30;52.20;;;;;;5093483;28;20168;-79
2023/09/10 06:55:35;;;;;;;12.48;9.60;;;38.20;1.00;;;;;;5093320;28;20356;-78
2023/09/10 06:58:00;;;;;;;10.50;9.43;;;37.50;1.00;;;;;;5092955;28;20469;-79
2023/09/10 07:00:26;;;;;;;15.00;9.57;;;37.40;1.00;;;;;;5093107;28;20264;-78
2023/09/10 07:02:52;;;;;;;13.98;8.63;;;38.60;1.00;;;;;;5093798;28;20524;-79
2023/09/10 07:05:17;;;;;;;13.68;8.50;;;38.60;99.90;;;;;;5093105;28;20203;-78
2023/09/10 07:07:43;;;;;;;9.82;7.90;;;39.00;99.90;;;;;;5093093;28;20159;-80
2023/09/10 07:10:10;;;;;;;9.50;7.95;;;39.40;99.90;;;;;;5093426;28;20164;-78
2023/09/10 07:12:36;;;;;;;9.65;7.28;;;40.20;99.90;;;;;;5093300;28;20183;-79
2023/09/10 07:15:02;;;;;;;8.35;6.60;;;40.80;99.90;;;;;;5094047;28;20189;-79
2023/09/10 07:17:27;;;;;;;11.50;6.55;;;41.10;99.90;;;;;;5094365;28;20653;-78
2023/09/10 07:19:53;;;;;;;12.65;6.72;;;41.10;99.90;;;;;;5092580;28;20234;-78
2023/09/10 07:22:18;;;;;;;11.73;6.55;;;40.70;99.90;;;;;;5092727;28;20177;-77
2023/09/10 07:24:44;;;;;;;8.68;6.10;;;40.30;99.90;;;;;;5093038;28;20532;-77
2023/09/10 07:27:10;;;;;;;11.68;6.18;;;39.90;99.90;;;;;;5091480;28;20217;-78
2023/09/10 07:29:35;;;;;;;11.35;6.55;;;40.50;99.90;;;;;;5093018;28;20583;-76
2023/09/10 07:32:01;;;;;;;10.63;5.78;;;40.60;82.90;;;;;;5093219;28;20183;-77
2023/09/10 07:34:26;;;;;;;12.02;5.60;;;40.70;55.90;;;;;;5093046;28;20533;-76
2023/09/10 07:36:52;;;;;;;8.77;5.80;;;40.20;40.20;;;;;;5092218;28;20666;-76
2023/09/10 07:39:19;;;;;;;10.38;5.47;;;40.00;44.10;;;;;;5092537;28;20739;-78
2023/09/10 07:41:45;;;;;;;9.38;5.93;;;40.50;41.90;;;;;;5093484;28;20186;-78
2023/09/10 07:44:10;;;;;;;7.10;4.80;;;41.00;41.50;;;;;;5093576;28;20539;-76
2023/09/10 07:46:36;;;;;;;7.35;4.47;;;41.40;13.70;;;;;;5093109;28;20228;-76
2023/09/10 07:49:02;;;;;;;8.52;4.28;;;41.70;1.00;;;;;;5093039;28;20171;-77
2023/09/10 07:51:27;;;;;;;8.20;5.03;;;41.20;1.00;;;;;;5092381;28;20172;-77
2023/09/10 07:53:53;;;;;;;8.90;4.88;;;40.80;1.00;;;;;;5092943;28;20183;-76
2023/09/10 07:56:18;;;;;;;6.80;4.43;;;41.80;1.00;;;;;;5091528;28;20175;-77
2023/09/10 07:58:44;;;;;;;8.40;4.88;;;42.40;1.00;;;;;;5091448;28;20658;-77
2023/09/10 08:01:10;;;;;;;8.52;4.43;;;41.90;1.00;;;;;;5093675;28;20262;-77
2023/09/10 08:03:37;;;;;;;7.03;4.88;;;41.90;1.00;;;;;;5096438;28;20246;-77
2023/09/10 08:06:03;;;;;;;8.73;4.20;;;41.90;1.00;;;;;;5096357;28;20642;-77
2023/09/10 08:08:29;;;;;;;8.25;4.70;;;42.00;1.00;;;;;;5096578;28;20199;-76
2023/09/10 08:10:54;;;;;;;8.30;4.95;;;42.30;1.00;;;;;;5094847;28;20552;-77
2023/09/10 08:13:20;;;;;;;8.10;5.25;;;42.50;1.00;;;;;;5096471;28;20167;-77
2023/09/10 08:15:46;;;;;;;13.40;5.05;;;43.00;1.00;;;;;;5097012;28;20167;-77
2023/09/10 08:18:12;;;;;;;10.23;7.05;;;43.30;1.00;;;;;;5096495;28;20215;-76
2023/09/10 08:20:39;;;;;;;10.93;5.18;;;42.60;1.00;;;;;;5096065;28;20195;-76
2023/09/10 08:23:05;;;;;;;7.72;4.70;;;43.00;1.00;;;;;;5096348;28;20220;-76
2023/09/10 08:25:31;;;;;;;7.70;4.90;;;43.30;1.00;;;;;;5095622;28;20182;-76
2023/09/10 08:27:58;;;;;;;7.18;5.05;;;43.20;1.00;;;;;;5095979;28;20163;-77
2023/09/10 08:30:24;;;;;;;7.38;4.63;;;43.30;1.00;;;;;;5096791;28;20530;-76
2023/09/10 08:32:50;;;;;;;12.48;5.07;;;43.30;1.00;;;;;;5096201;28;20167;-77
2023/09/10 08:35:18;;;;;;;10.55;5.22;;;44.00;1.00;;;;;;5095722;28;20175;-77
2023/09/10 08:37:44;;;;;;;8.00;4.72;;;44.30;1.00;;;;;;5095894;28;20171;-77
2023/09/10 08:40:10;;;;;;;8.82;4.93;;;44.70;1.00;;;;;;5095976;28;20328;-77
2023/09/10 08:42:42;;;;;;;11.27;4.30;;;45.00;1.00;;;;;;5095966;28;20590;-77
2023/09/10 08:45:10;;;;;;;7.63;4.60;;;44.60;1.00;;;;;;5095639;28;20167;-77
2023/09/10 08:47:41;;;;;;;7.20;4.85;;;44.50;1.00;;;;;;5095915;28;20175;-77
2023/09/10 08:50:12;;;;;;;9.60;4.78;;;42.60;1.00;;;;;;5093881;28;20650;-78
2023/09/10 08:52:42;;;;;;;6.95;4.63;;;42.70;1.00;;;;;;5095777;28;20168;-77
2023/09/10 08:55:08;;;;;;;8.38;4.30;;;43.00;1.00;;;;;;5096571;28;20175;-77
2023/09/10 08:57:36;;;;;;;7.38;4.63;;;43.50;1.00;;;;;;5096758;28;20171;-77
2023/09/10 09:00:06;;;;;;;9.93;4.82;;;43.90;1.00;;;;;;5096931;28;20210;-77
2023/09/10 09:02:32;;;;;;;8.55;4.60;;;44.50;1.00;;;;;;5095929;28;20251;-77
2023/09/10 09:04:57;;;;;;;8.05;4.75;;;44.10;1.00;;;;;;5095937;28;20195;-76
2023/09/10 09:07:26;;;;;;;9.52;4.72;;;43.80;1.00;;;;;;5095388;28;20179;-76
2023/09/10 09:09:55;;;;;;;5.88;4.88;;;43.50;1.00;;;;;;5096107;28;20191;-77
2023/09/10 09:12:21;;;;;;;7.35;4.82;;;42.20;1.00;;;;;;5096554;28;20171;-77
2023/09/10 09:14:49;;;;;;;5.22;4.30;;;42.90;1.00;;;;;;5094937;28;20171;-76
2023/09/10 09:17:15;;;;;;;11.02;4.80;;;43.10;1.00;;;;;;5095316;28;20206;-77
2023/09/10 09:19:44;;;;;;;9.75;3.97;;;43.30;1.00;;;;;;5094626;28;20292;-77
2023/09/10 09:22:12;;;;;;;8.10;4.82;;;43.00;1.00;;;;;;5094606;28;20183;-77
2023/09/10 09:24:40;;;;;;;6.63;4.30;;;43.10;1.00;;;;;;5096370;28;20262;-76
2023/09/10 09:27:07;;;;;;;8.90;4.60;;;42.90;1.00;;;;;;5095157;28;20211;-77
2023/09/10 09:29:33;;;;;;;11.73;4.53;;;43.40;1.00;;;;;;5095137;28;20180;-76
2023/09/10 09:31:58;;;;;;;9.55;5.03;;;43.00;1.00;;;;;;5095043;28;20263;-77
2023/09/10 09:34:25;;;;;;;8.23;4.65;;;43.10;1.00;;;;;;5095368;28;20186;-76
2023/09/10 09:36:51;;;;;;;7.57;4.88;;;43.40;1.00;;;;;;5096991;28;20168;-77
2023/09/10 09:39:18;;;;;;;6.00;4.47;;;43.10;1.00;;;;;;5093933;28;20222;-76
2023/09/10 09:41:51;;;;;;;6.80;4.47;;;43.30;1.00;;;;;;5094781;28;20170;-77
2023/09/10 09:44:17;;;;;;;7.57;4.20;;;43.40;1.00;;;;;;5094701;28;20500;-77
2023/09/10 09:46:45;;;;;;;8.95;4.80;;;43.10;1.00;;;;;;5095358;28;20246;-77
2023/09/10 09:49:10;;;;;;;9.00;5.07;;;43.50;1.00;;;;;;5094408;28;20175;-77
2023/09/10 09:51:42;;;;;;;10.75;4.75;;;44.00;1.00;;;;;;5094546;28;20533;-77
2023/09/10 09:54:08;;;;;;;8.88;5.13;;;44.40;1.00;;;;;;5094606;28;20228;-77
2023/09/10 09:56:37;;;;;;;9.30;4.68;;;44.20;1.00;;;;;;5094267;28;20626;-75
2023/09/10 09:59:02;;;;;;;7.90;4.93;;;42.30;1.00;;;;;;5093334;28;20211;-76
2023/09/10 10:01:28;;;;;;;9.10;5.03;;;42.80;1.00;;;;;;5092754;28;20211;-76
2023/09/10 10:03:56;;;;;;;7.32;4.80;;;43.20;1.00;;;;;;5094722;28;20171;-77
2023/09/10 10:06:22;;;;;;;7.05;5.22;;;42.30;1.00;;;;;;5095896;28;20217;-76
2023/09/10 10:08:49;;;;;;;9.65;5.38;;;41.80;1.00;;;;;;5095215;28;20167;-76
2023/09/10 10:11:35;;;;;;;10.95;5.25;;;42.50;1.00;;;;;;5094672;28;20172;-75
2023/09/10 10:14:03;;;;;;;7.68;4.78;;;42.70;1.00;;;;;;5093666;28;20171;-75
2023/09/10 10:16:29;;;;;;;5.10;4.60;;;41.80;1.00;;;;;;5093683;28;20182;-77
2023/09/10 10:18:55;;;;;;;13.02;5.28;;;41.30;1.00;;;;;;5093226;28;20356;-75
2023/09/10 10:21:22;;;;;;;7.15;4.50;;;40.90;1.00;;;;;;5093500;28;20627;-75
2023/09/10 10:23:48;;;;;;;5.57;4.78;;;40.60;1.00;;;;;;5093407;28;20522;-75
2023/09/10 10:26:16;;;;;;;9.30;4.68;;;41.40;1.00;;;;;;5093419;28;20252;-75
2023/09/10 10:28:48;;;;;;;8.90;4.65;;;40.60;1.00;;;;;;5092011;28;20285;-75
2023/09/10 10:31:21;;;;;;;5.13;4.60;;;40.20;1.00;;;;;;5093324;28;20213;-76
2023/09/10 10:34:01;;;;;;;6.15;4.38;;;40.50;1.00;;;;;;5094217;28;20190;-76
2023/09/10 10:36:39;;;;;;;7.00;4.35;;;40.80;1.00;;;;;;5093945;28;20633;-75
2023/09/10 10:39:12;;;;;;;10.60;4.78;;;41.10;1.00;;;;;;5093369;28;20195;-75
2023/09/10 10:41:45;;;;;;;9.18;4.70;;;40.90;1.00;;;;;;5093354;28;20235;-75
2023/09/10 10:44:19;;;;;;;7.72;4.57;;;40.40;1.00;;;;;;5093779;28;20172;-75
2023/09/10 10:46:44;;;;;;;9.32;4.43;;;40.40;1.00;;;;;;5093199;28;20167;-76
2023/09/10 10:49:11;;;;;;;8.13;4.68;;;40.00;1.00;;;;;;5095576;28;20182;-77
2023/09/10 10:51:45;;;;;;;6.30;4.55;;;40.80;1.00;;;;;;5093334;28;20214;-75
2023/09/10 10:54:13;;;;;;;9.02;4.75;;;41.90;1.00;;;;;;5093801;28;20163;-76
2023/09/10 10:56:40;;;;;;;6.50;4.85;;;42.70;1.00;;;;;;5092671;28;20250;-76
2023/09/10 10:59:05;;;;;;;10.88;6.40;;;42.70;1.00;;;;;;5093602;28;20195;-77
2023/09/10 11:01:32;;;;;;;5.97;4.50;;;42.90;1.00;;;;;;5091645;28;20175;-75
2023/09/10 11:03:57;;;;;;;8.90;4.60;;;42.80;1.00;;;;;;5093507;28;20665;-75
2023/09/10 11:06:23;;;;;;;12.52;4.78;;;41.30;1.00;;;;;;5093341;28;20206;-75
2023/09/10 11:08:48;;;;;;;8.10;4.60;;;39.50;1.00;;;;;;5092693;28;20167;-75
2023/09/10 11:11:37;;;;;;;9.27;4.50;;;39.20;1.00;;;;;;5092863;28;20195;-74
2023/09/10 11:14:08;;;;;;;5.45;4.30;;;39.30;1.00;;;;;;5093042;28;20160;-76
2023/09/10 11:16:43;;;;;;;6.45;4.32;;;39.60;1.00;;;;;;5092895;28;20175;-75
2023/09/10 11:19:45;;;;;;;7.28;4.30;;;39.40;1.00;;;;;;5092550;28;20237;-74
2023/09/10 11:22:10;;;;;;;6.15;4.47;;;40.50;1.00;;;;;;5093123;28;20212;-75
2023/09/10 11:24:36;;;;;;;9.75;4.65;;;41.10;1.00;;;;;;5092819;28;20175;-75
2023/09/10 11:27:25;;;;;;;8.20;5.15;;;41.30;1.00;;;;;;5092452;28;20496;-74
2023/09/10 11:30:08;;;;;;;10.40;5.07;;;40.80;1.00;;;;;;5092578;28;20179;-74
2023/09/10 11:32:33;;;;;;;6.30;4.72;;;39.50;1.00;;;;;;5092788;28;20155;-74
2023/09/10 11:35:17;;;;;;;6.82;4.78;;;38.80;1.00;;;;;;5093430;28;20244;-75
2023/09/10 11:37:46;;;;;;;5.57;4.70;;;38.30;1.00;;;;;;5097178;28;20242;-74
2023/09/10 11:40:17;;;;;;;8.45;4.78;;;38.00;1.00;;;;;;5096602;28;20229;-74
2023/09/10 11:42:47;;;;;;;8.18;4.75;;;38.40;1.00;;;;;;5095705;28;20167;-75
2023/09/10 11:45:13;;;;;;;6.90;4.93;;;38.70;1.00;;;;;;5096531;28;20348;-73
2023/09/10 11:47:47;;;;;;;7.50;4.38;;;38.20;1.00;;;;;;5096827;28;20174;-75
2023/09/10 11:50:18;;;;;;;9.48;4.30;;;37.80;1.00;;;;;;5096503;28;20181;-75
2023/09/10 11:52:44;;;;;;;5.10;4.65;;;37.10;1.00;;;;;;5096885;28;20159;-75
2023/09/10 11:55:10;;;;;;;5.60;4.75;;;36.90;1.00;;;;;;5096873;28;20183;-75
2023/09/10 11:57:36;;;;;;;7.45;4.43;;;37.00;1.00;;;;;;5096541;28;20167;-75
2023/09/10 12:00:03;;;;;;;6.30;4.63;;;36.30;1.00;;;;;;5096642;28;20203;-76
2023/09/10 12:02:29;;;;;;;5.15;4.65;;;35.90;1.00;;;;;;5096390;28;20159;-75
2023/09/10 12:04:59;;;;;;;7.32;4.70;;;35.60;32.20;;;;;;5095879;28;20168;-76
2023/09/10 12:07:24;;;;;;;7.60;4.60;;;35.20;22.90;;;;;;5096494;28;20528;-75
2023/09/10 12:09:50;;;;;;;6.70;5.07;;;35.00;97.90;;;;;;5096159;28;20195;-75
2023/09/10 12:12:19;;;;;;;6.47;4.50;;;35.20;99.90;;;;;;5096180;28;20233;-74
2023/09/10 12:14:45;;;;;;;9.45;4.43;;;34.50;87.60;;;;;;5096209;28;20214;-74
2023/09/10 12:17:11;;;;;;;5.78;4.05;;;34.80;88.20;;;;;;5096470;28;20212;-75
2023/09/10 12:19:37;;;;;;;4.95;4.43;;;34.90;46.00;;;;;;5095294;28;20655;-75
2023/09/10 12:22:09;;;;;;;7.32;4.93;;;34.60;90.20;;;;;;5096219;28;20187;-75
2023/09/10 12:24:40;;;;;;;7.88;4.93;;;34.60;99.90;;;;;;5095831;28;20179;-74
2023/09/10 12:27:06;;;;;;;6.53;4.25;;;34.20;99.90;;;;;;5095933;28;20212;-74
2023/09/10 12:29:32;;;;;;;7.65;5.13;;;34.00;99.90;;;;;;5095399;28;20639;-74
2023/09/10 12:31:58;;;;;;;6.65;5.88;;;33.80;99.90;;;;;;5096385;28;20188;-73
2023/09/10 12:34:25;;;;;;;8.07;5.20;;;33.50;99.90;;;;;;5096035;28;20613;-74
2023/09/10 12:36:51;;;;;;;8.32;5.15;;;33.20;99.90;;;;;;5095904;28;20164;-74
2023/09/10 12:39:21;;;;;;;6.03;5.10;;;33.10;99.90;;;;;;5095568;28;20204;-73
2023/09/10 12:42:01;;;;;;;8.13;5.35;;;32.80;1.00;;;;;;5095579;28;20179;-73
2023/09/10 12:44:28;;;;;;;7.38;5.13;;;32.90;1.00;;;;;;5096012;28;20230;-74